createdAt,value
2019-02-28T00:00:06.589Z,10.00
2019-02-28T00:01:05.793Z,10.10
2019-02-28T00:02:05.678Z,9.50
2019-02-28T00:03:05.681Z,9.60
2019-02-28T00:04:05.483Z,9.80
2019-02-28T00:05:06.138Z,9.40
2019-02-28T00:06:05.300Z,10.60
2019-02-28T00:07:05.203Z,9.80
2019-02-28T00:08:05.087Z,9.30
2019-02-28T00:09:04.981Z,10.20
2019-02-28T00:10:04.985Z,9.30
2019-02-28T00:11:05.922Z,9.00
2019-02-28T00:12:04.685Z,10.20
2019-02-28T00:13:04.586Z,9.70
2019-02-28T00:14:04.488Z,9.80
2019-02-28T00:15:04.386Z,9.60
2019-02-28T00:16:04.321Z,9.80
2019-02-28T00:17:06.175Z,9.90
2019-02-28T00:18:04.091Z,9.00
2019-02-28T00:19:03.990Z,9.30
2019-02-28T00:20:03.896Z,10.00
2019-02-28T00:21:07.018Z,10.40
2019-02-28T00:22:03.695Z,9.70
2019-02-28T00:23:03.724Z,9.90
2019-02-28T00:24:03.499Z,9.70
2019-02-28T00:25:04.363Z,10.10
2019-02-28T00:26:03.315Z,9.60
2019-02-28T00:27:03.199Z,10.10
2019-02-28T00:28:03.095Z,9.90
2019-02-28T00:29:02.997Z,9.70
2019-02-28T00:30:05.972Z,10.00
2019-02-28T00:31:02.903Z,10.80
2019-02-28T00:32:02.715Z,9.60
2019-02-28T00:33:02.598Z,10.60
2019-02-28T00:34:05.348Z,9.80
2019-02-28T00:35:02.412Z,9.70
2019-02-28T00:36:02.307Z,9.60
2019-02-28T00:37:02.216Z,9.70
2019-02-28T00:38:02.103Z,9.90
2019-02-28T00:39:03.937Z,9.30
2019-02-28T00:40:01.904Z,9.50
2019-02-28T00:41:01.806Z,9.70
2019-02-28T00:42:01.730Z,9.80
2019-02-28T00:43:01.606Z,9.70
2019-02-28T00:44:01.502Z,12.00
2019-02-28T00:45:02.833Z,10.80
2019-02-28T00:46:01.305Z,10.00
2019-02-28T00:47:01.222Z,10.80
2019-02-28T00:48:01.104Z,10.60
2019-02-28T00:49:01.009Z,10.60
2019-02-28T00:50:00.907Z,10.50
2019-02-28T00:51:00.818Z,10.90
2019-02-28T00:52:01.619Z,10.60
2019-02-28T00:53:00.609Z,10.20
2019-02-28T00:54:00.526Z,11.40
2019-02-28T00:55:00.409Z,10.70
2019-02-28T00:56:00.306Z,11.50
2019-02-28T00:57:00.235Z,11.40
2019-02-28T00:58:00.106Z,11.40
2019-02-28T00:59:00.549Z,11.50
2019-02-28T01:00:04.960Z,11.50
2019-02-28T01:00:59.803Z,12.20
2019-02-28T01:01:59.720Z,10.90
2019-02-28T01:02:59.600Z,12.10
2019-02-28T01:03:59.512Z,11.20
2019-02-28T01:05:01.431Z,12.00
2019-02-28T01:05:59.310Z,12.90
2019-02-28T01:06:59.232Z,12.60
2019-02-28T01:07:59.103Z,13.70
2019-02-28T01:08:59.005Z,13.70
2019-02-28T01:10:01.425Z,15.10
2019-02-28T01:10:58.802Z,14.60
2019-02-28T01:11:58.720Z,15.00
2019-02-28T01:12:58.600Z,13.90
2019-02-28T01:14:01.635Z,15.10
2019-02-28T01:14:58.404Z,14.40
2019-02-28T01:15:58.299Z,14.00
2019-02-28T01:16:58.216Z,14.10
2019-02-28T01:18:00.441Z,14.30
2019-02-28T01:18:57.996Z,13.70
2019-02-28T01:19:57.902Z,13.50
2019-02-28T01:20:57.799Z,13.90
2019-02-28T01:21:57.713Z,14.90
2019-02-28T01:22:58.566Z,13.80
2019-02-28T01:24:00.727Z,13.70
2019-02-28T01:24:57.410Z,13.60
2019-02-28T01:25:57.293Z,15.20
2019-02-28T01:26:57.209Z,14.50
2019-02-28T01:27:57.091Z,14.10
2019-02-28T01:29:01.482Z,14.50
2019-02-28T01:29:56.889Z,14.70
2019-02-28T01:30:56.793Z,14.60
2019-02-28T01:31:56.704Z,14.30
2019-02-28T01:32:56.589Z,12.50
2019-02-28T01:33:58.774Z,13.30
2019-02-28T01:34:56.389Z,12.60
2019-02-28T01:35:56.285Z,13.00
2019-02-28T01:36:56.202Z,12.60
2019-02-28T01:37:56.093Z,13.50
2019-02-28T01:38:58.062Z,13.70
2019-02-28T01:39:55.885Z,13.30
2019-02-28T01:40:55.783Z,12.90
2019-02-28T01:41:55.701Z,13.10
2019-02-28T01:42:55.584Z,13.70
2019-02-28T01:43:55.482Z,13.80
2019-02-28T01:44:55.382Z,13.50
2019-02-28T01:45:55.282Z,14.50
2019-02-28T01:46:55.196Z,14.40
2019-02-28T01:47:55.080Z,15.10
2019-02-28T01:48:55.219Z,14.90
2019-02-28T01:49:57.787Z,13.70
2019-02-28T01:50:54.791Z,15.00
2019-02-28T01:51:54.701Z,14.30
2019-02-28T01:52:54.577Z,14.00
2019-02-28T01:53:54.496Z,14.60
2019-02-28T01:54:54.478Z,15.10
2019-02-28T01:55:54.277Z,13.80
2019-02-28T01:56:54.189Z,14.30
2019-02-28T01:57:54.080Z,13.80
2019-02-28T01:58:53.974Z,13.70
2019-02-28T01:59:53.873Z,14.00
2019-02-28T02:00:57.257Z,13.10
2019-02-28T02:01:53.789Z,14.00
2019-02-28T02:02:53.574Z,13.40
2019-02-28T02:03:53.477Z,13.90
2019-02-28T02:04:53.369Z,13.10
2019-02-28T02:05:53.269Z,12.80
2019-02-28T02:06:53.187Z,12.80
2019-02-28T02:07:53.072Z,12.50
2019-02-28T02:08:53.072Z,13.00
2019-02-28T02:09:52.871Z,13.20
2019-02-28T02:10:55.979Z,13.10
2019-02-28T02:11:52.692Z,12.90
2019-02-28T02:12:52.570Z,12.90
2019-02-28T02:13:52.467Z,13.10
2019-02-28T02:14:52.366Z,13.60
2019-02-28T02:15:52.374Z,14.00
2019-02-28T02:16:52.189Z,13.70
2019-02-28T02:17:52.072Z,14.40
2019-02-28T02:18:51.967Z,14.50
2019-02-28T02:19:52.182Z,14.50
2019-02-28T02:20:51.765Z,14.30
2019-02-28T02:21:51.666Z,14.30
2019-02-28T02:22:51.685Z,14.10
2019-02-28T02:23:53.117Z,15.00
2019-02-28T02:24:51.369Z,14.80
2019-02-28T02:25:51.272Z,13.60
2019-02-28T02:26:51.171Z,14.10
2019-02-28T02:27:53.222Z,14.90
2019-02-28T02:28:50.963Z,13.90
2019-02-28T02:29:50.962Z,13.80
2019-02-28T02:30:52.050Z,15.30
2019-02-28T02:31:50.666Z,14.10
2019-02-28T02:32:50.582Z,14.20
2019-02-28T02:33:52.436Z,14.00
2019-02-28T02:34:50.365Z,13.40
2019-02-28T02:35:50.265Z,13.70
2019-02-28T02:36:54.265Z,13.60
2019-02-28T02:37:50.084Z,13.80
2019-02-28T02:38:49.963Z,13.10
2019-02-28T02:39:50.455Z,13.40
2019-02-28T02:40:49.769Z,12.70
2019-02-28T02:41:49.667Z,13.30
2019-02-28T02:42:50.117Z,13.50
2019-02-28T02:43:49.570Z,13.50
2019-02-28T02:44:49.365Z,12.90
2019-02-28T02:45:49.267Z,12.80
2019-02-28T02:46:55.541Z,13.70
2019-02-28T02:47:49.092Z,13.00
2019-02-28T02:48:48.967Z,13.50
2019-02-28T02:49:56.102Z,13.30
2019-02-28T02:50:48.867Z,12.30
2019-02-28T02:51:50.558Z,12.90
2019-02-28T02:52:48.586Z,11.60
2019-02-28T02:53:48.470Z,11.40
2019-02-28T02:54:52.050Z,12.00
2019-02-28T02:55:48.271Z,13.60
2019-02-28T02:56:48.169Z,11.60
2019-02-28T02:57:51.747Z,11.70
2019-02-28T02:58:47.975Z,11.70
2019-02-28T02:59:47.872Z,13.00
2019-02-28T03:00:51.324Z,12.10
2019-02-28T03:01:47.674Z,11.90
2019-02-28T03:02:47.590Z,12.20
2019-02-28T03:03:47.478Z,12.40
2019-02-28T03:04:47.478Z,12.10
2019-02-28T03:05:47.327Z,12.10
2019-02-28T03:06:47.176Z,12.10
2019-02-28T03:07:47.100Z,11.30
2019-02-28T03:08:46.979Z,12.30
2019-02-28T03:09:46.881Z,12.10
2019-02-28T03:10:46.780Z,12.10
2019-02-28T03:11:46.683Z,12.90
2019-02-28T03:12:46.612Z,11.70
2019-02-28T03:13:46.486Z,11.60
2019-02-28T03:14:48.754Z,11.90
2019-02-28T03:15:46.290Z,11.80
2019-02-28T03:16:46.201Z,11.40
2019-02-28T03:17:47.111Z,11.90
2019-02-28T03:18:46.105Z,11.40
2019-02-28T03:19:45.887Z,12.00
2019-02-28T03:20:45.788Z,12.20
2019-02-28T03:21:51.503Z,11.00
2019-02-28T03:22:45.605Z,11.60
2019-02-28T03:23:45.488Z,11.70
2019-02-28T03:24:50.677Z,12.00
2019-02-28T03:25:45.289Z,12.20
2019-02-28T03:26:45.196Z,12.00
2019-02-28T03:27:45.230Z,12.80
2019-02-28T03:28:44.992Z,12.20
2019-02-28T03:29:44.963Z,12.20
2019-02-28T03:30:44.831Z,11.60
2019-02-28T03:31:54.494Z,11.70
2019-02-28T03:32:44.619Z,10.50
2019-02-28T03:33:44.490Z,12.00
2019-02-28T03:34:54.840Z,11.30
2019-02-28T03:35:44.447Z,12.20
2019-02-28T03:36:44.189Z,11.10
2019-02-28T03:37:44.107Z,11.50
2019-02-28T03:38:48.264Z,12.20
2019-02-28T03:39:43.890Z,12.00
2019-02-28T03:40:43.789Z,12.20
2019-02-28T03:41:43.694Z,12.80
2019-02-28T03:42:43.620Z,11.70
2019-02-28T03:43:44.202Z,13.30
2019-02-28T03:44:43.401Z,11.70
2019-02-28T03:45:43.286Z,12.60
2019-02-28T03:46:46.857Z,11.40
2019-02-28T03:47:43.110Z,11.70
2019-02-28T03:48:42.989Z,11.80
2019-02-28T03:49:48.624Z,12.40
2019-02-28T03:50:42.853Z,11.40
2019-02-28T03:51:42.691Z,13.10
2019-02-28T03:52:44.166Z,13.80
2019-02-28T03:53:42.484Z,11.90
2019-02-28T03:54:42.387Z,12.20
2019-02-28T03:55:42.288Z,12.20
2019-02-28T03:56:42.187Z,13.00
2019-02-28T03:57:42.102Z,14.70
2019-02-28T03:58:43.093Z,12.40
2019-02-28T03:59:41.897Z,12.70
2019-02-28T04:00:41.784Z,12.80
2019-02-28T04:01:45.505Z,12.50
2019-02-28T04:02:41.585Z,12.00
2019-02-28T04:03:41.509Z,13.50
2019-02-28T04:04:48.454Z,13.50
2019-02-28T04:05:41.279Z,14.00
2019-02-28T04:06:41.190Z,13.70
2019-02-28T04:07:41.102Z,13.60
2019-02-28T04:08:40.981Z,13.80
2019-02-28T04:09:44.315Z,13.10
2019-02-28T04:10:40.785Z,13.30
2019-02-28T04:11:40.684Z,13.10
2019-02-28T04:12:45.217Z,13.80
2019-02-28T04:13:40.502Z,15.00
2019-02-28T04:14:40.381Z,13.60
2019-02-28T04:15:49.814Z,14.50
2019-02-28T04:16:40.181Z,13.80
2019-02-28T04:17:40.087Z,15.50
2019-02-28T04:18:43.897Z,12.90
2019-02-28T04:19:39.885Z,15.70
2019-02-28T04:20:39.806Z,13.30
2019-02-28T04:21:46.313Z,14.40
2019-02-28T04:22:39.583Z,15.50
2019-02-28T04:23:39.500Z,12.90
2019-02-28T04:24:39.382Z,13.40
2019-02-28T04:25:39.284Z,13.80
2019-02-28T04:26:39.188Z,14.10
2019-02-28T04:27:40.449Z,13.90
2019-02-28T04:28:39.001Z,15.50
2019-02-28T04:29:38.884Z,14.40
2019-02-28T04:30:42.422Z,17.60
2019-02-28T04:31:38.685Z,13.40
2019-02-28T04:32:38.590Z,14.60
2019-02-28T04:33:39.354Z,13.90
2019-02-28T04:34:38.387Z,15.70
2019-02-28T04:35:38.290Z,14.10
2019-02-28T04:36:38.209Z,13.60
2019-02-28T04:37:44.862Z,14.40
2019-02-28T04:38:38.010Z,14.00
2019-02-28T04:39:37.892Z,14.30
2019-02-28T04:40:37.802Z,14.10
2019-02-28T04:41:37.806Z,13.50
2019-02-28T04:42:37.595Z,14.20
2019-02-28T04:43:37.511Z,14.50
2019-02-28T04:44:37.396Z,13.40
2019-02-28T04:45:37.297Z,13.50
2019-02-28T04:46:37.198Z,15.30
2019-02-28T04:47:37.216Z,14.00
2019-02-28T04:48:37.115Z,13.20
2019-02-28T04:49:36.897Z,13.40
2019-02-28T04:50:36.802Z,14.00
2019-02-28T04:51:37.115Z,13.30
2019-02-28T04:52:36.602Z,15.00
2019-02-28T04:53:36.517Z,13.40
2019-02-28T04:54:36.400Z,14.20
2019-02-28T04:55:37.158Z,14.50
2019-02-28T04:56:36.203Z,14.10
2019-02-28T04:57:36.104Z,14.30
2019-02-28T04:58:36.021Z,14.30
2019-02-28T04:59:35.908Z,13.20
2019-02-28T05:00:37.859Z,13.20
2019-02-28T05:01:35.709Z,13.50
2019-02-28T05:02:35.724Z,13.20
2019-02-28T05:03:35.527Z,14.00
2019-02-28T05:04:36.107Z,13.50
2019-02-28T05:05:35.309Z,14.40
2019-02-28T05:06:35.208Z,14.20
2019-02-28T05:07:35.110Z,13.50
2019-02-28T05:08:38.608Z,13.40
2019-02-28T05:09:35.020Z,13.70
2019-02-28T05:10:34.812Z,13.80
2019-02-28T05:11:34.719Z,14.60
2019-02-28T05:12:36.300Z,13.60
2019-02-28T05:13:34.532Z,13.20
2019-02-28T05:14:34.416Z,14.10
2019-02-28T05:15:37.525Z,12.70
2019-02-28T05:16:34.326Z,13.70
2019-02-28T05:17:34.119Z,13.90
2019-02-28T05:18:34.039Z,14.10
2019-02-28T05:19:35.756Z,14.10
2019-02-28T05:20:33.822Z,13.70
2019-02-28T05:21:33.720Z,14.30
2019-02-28T05:22:33.621Z,15.80
2019-02-28T05:23:36.032Z,15.90
2019-02-28T05:24:33.420Z,17.00
2019-02-28T05:25:33.321Z,16.10
2019-02-28T05:26:33.225Z,17.10
2019-02-28T05:27:35.526Z,17.30
2019-02-28T05:28:33.048Z,16.00
2019-02-28T05:29:32.927Z,17.30
2019-02-28T05:30:32.943Z,17.20
2019-02-28T05:31:32.724Z,18.40
2019-02-28T05:32:35.654Z,15.40
2019-02-28T05:33:32.544Z,16.00
2019-02-28T05:34:32.429Z,16.70
2019-02-28T05:35:32.326Z,15.70
2019-02-28T05:36:34.612Z,16.90
2019-02-28T05:37:32.226Z,18.50
2019-02-28T05:38:32.044Z,19.50
2019-02-28T05:39:31.930Z,19.90
2019-02-28T05:40:31.827Z,19.60
2019-02-28T05:41:31.730Z,19.30
2019-02-28T05:42:31.628Z,17.60
2019-02-28T05:43:32.187Z,17.70
2019-02-28T05:44:31.552Z,16.00
2019-02-28T05:45:31.330Z,18.80
2019-02-28T05:46:31.229Z,17.40
2019-02-28T05:47:32.435Z,15.80
2019-02-28T05:48:31.052Z,16.70
2019-02-28T05:49:30.929Z,15.10
2019-02-28T05:50:30.934Z,15.00
2019-02-28T05:51:30.730Z,16.60
2019-02-28T05:52:33.693Z,15.60
2019-02-28T05:53:30.533Z,15.60
2019-02-28T05:54:30.447Z,15.60
2019-02-28T05:55:30.329Z,15.90
2019-02-28T05:56:33.135Z,15.60
2019-02-28T05:57:30.131Z,15.20
2019-02-28T05:58:30.035Z,15.10
2019-02-28T05:59:29.951Z,15.10
2019-02-28T06:00:29.838Z,17.10
2019-02-28T06:01:29.732Z,15.00
2019-02-28T06:02:29.631Z,15.50
2019-02-28T06:03:30.380Z,15.30
2019-02-28T06:04:29.450Z,14.50
2019-02-28T06:05:29.334Z,14.40
2019-02-28T06:06:29.245Z,15.80
2019-02-28T06:07:29.587Z,15.20
2019-02-28T06:08:29.033Z,14.40
2019-02-28T06:09:28.974Z,14.20
2019-02-28T06:10:28.832Z,14.10
2019-02-28T06:11:34.505Z,15.20
2019-02-28T06:12:28.632Z,16.60
2019-02-28T06:13:28.535Z,19.40
2019-02-28T06:14:28.498Z,23.90
2019-02-28T06:15:28.985Z,22.00
2019-02-28T06:16:28.235Z,21.30
2019-02-28T06:17:28.136Z,20.70
2019-02-28T06:18:32.714Z,17.10
2019-02-28T06:19:27.948Z,17.60
2019-02-28T06:20:27.841Z,18.60
2019-02-28T06:21:27.732Z,16.60
2019-02-28T06:22:30.814Z,17.40
2019-02-28T06:23:27.538Z,15.50
2019-02-28T06:24:27.447Z,17.20
2019-02-28T06:25:27.333Z,17.10
2019-02-28T06:26:27.246Z,15.30
2019-02-28T06:27:27.136Z,16.50
2019-02-28T06:28:27.648Z,15.60
2019-02-28T06:29:26.949Z,15.60
2019-02-28T06:30:27.794Z,16.50
2019-02-28T06:31:26.741Z,17.10
2019-02-28T06:32:27.403Z,17.20
2019-02-28T06:33:26.533Z,18.40
2019-02-28T06:34:26.451Z,22.30
2019-02-28T06:35:26.333Z,18.00
2019-02-28T06:36:29.314Z,20.80
2019-02-28T06:37:26.139Z,17.90
2019-02-28T06:38:26.036Z,17.70
2019-02-28T06:39:26.888Z,19.00
2019-02-28T06:40:25.838Z,20.90
2019-02-28T06:41:25.997Z,18.70
2019-02-28T06:42:25.635Z,19.30
2019-02-28T06:43:25.535Z,19.00
2019-02-28T06:44:27.001Z,16.30
2019-02-28T06:45:25.337Z,16.60
2019-02-28T06:46:25.237Z,15.40
2019-02-28T06:47:25.138Z,15.70
2019-02-28T06:48:26.606Z,16.30
2019-02-28T06:49:24.953Z,15.00
2019-02-28T06:50:24.838Z,14.10
2019-02-28T06:51:24.736Z,14.20
2019-02-28T06:52:25.222Z,12.80
2019-02-28T06:53:24.539Z,13.90
2019-02-28T06:54:24.468Z,14.30
2019-02-28T06:55:24.341Z,13.50
2019-02-28T06:56:24.238Z,15.80
2019-02-28T06:57:26.765Z,15.00
2019-02-28T06:58:24.042Z,14.80
2019-02-28T06:59:23.958Z,14.20
2019-02-28T07:00:23.842Z,15.50
2019-02-28T07:01:23.746Z,15.00
2019-02-28T07:02:23.647Z,15.70
2019-02-28T07:03:23.548Z,15.10
2019-02-28T07:04:23.464Z,14.30
2019-02-28T07:05:25.739Z,14.50
2019-02-28T07:06:23.251Z,14.60
2019-02-28T07:07:23.154Z,14.20
2019-02-28T07:08:24.795Z,14.20
2019-02-28T07:09:22.981Z,14.80
2019-02-28T07:10:22.863Z,15.30
2019-02-28T07:11:22.766Z,15.50
2019-02-28T07:12:22.668Z,15.20
2019-02-28T07:13:22.576Z,15.30
2019-02-28T07:14:22.495Z,14.30
2019-02-28T07:15:24.773Z,15.70
2019-02-28T07:16:22.283Z,13.90
2019-02-28T07:17:22.187Z,14.60
2019-02-28T07:18:22.092Z,14.30
2019-02-28T07:19:22.031Z,14.60
2019-02-28T07:20:21.902Z,14.00
2019-02-28T07:21:21.809Z,14.70
2019-02-28T07:22:21.711Z,14.90
2019-02-28T07:23:22.321Z,15.70
2019-02-28T07:24:21.539Z,14.80
2019-02-28T07:25:21.429Z,14.90
2019-02-28T07:26:21.333Z,14.30
2019-02-28T07:27:23.365Z,15.20
2019-02-28T07:28:21.151Z,14.50
2019-02-28T07:29:21.067Z,15.40
2019-02-28T07:30:20.960Z,15.20
2019-02-28T07:31:21.680Z,15.20
2019-02-28T07:32:20.776Z,14.50
2019-02-28T07:33:20.685Z,15.40
2019-02-28T07:34:23.874Z,15.70
2019-02-28T07:35:20.496Z,14.90
2019-02-28T07:36:20.397Z,15.20
2019-02-28T07:37:20.305Z,15.50
2019-02-28T07:38:20.212Z,19.40
2019-02-28T07:39:20.124Z,15.40
2019-02-28T07:40:20.048Z,16.10
2019-02-28T07:41:20.380Z,15.60
2019-02-28T07:42:19.847Z,16.50
2019-02-28T07:43:19.854Z,15.90
2019-02-28T07:44:22.213Z,15.50
2019-02-28T07:45:19.598Z,16.30
2019-02-28T07:46:19.477Z,15.10
2019-02-28T07:47:19.383Z,16.20
2019-02-28T07:48:19.293Z,14.90
2019-02-28T07:49:19.220Z,15.00
2019-02-28T07:50:19.234Z,15.80
2019-02-28T07:51:22.726Z,15.40
2019-02-28T07:52:20.405Z,14.20
2019-02-28T07:53:18.834Z,14.90
2019-02-28T07:54:20.541Z,14.60
2019-02-28T07:55:18.670Z,14.60
2019-02-28T07:56:18.559Z,14.50
2019-02-28T07:57:18.570Z,15.90
2019-02-28T07:58:18.381Z,14.70
2019-02-28T07:59:18.287Z,16.10
2019-02-28T08:00:18.655Z,14.80
2019-02-28T08:01:18.477Z,16.10
2019-02-28T08:02:18.016Z,15.20
2019-02-28T08:03:17.924Z,15.80
2019-02-28T08:04:18.484Z,15.70
2019-02-28T08:05:17.762Z,16.70
2019-02-28T08:06:17.652Z,15.20
2019-02-28T08:07:17.565Z,15.30
2019-02-28T08:08:17.473Z,15.40
2019-02-28T08:09:17.387Z,15.40
2019-02-28T08:10:17.313Z,15.70
2019-02-28T08:11:19.992Z,15.50
2019-02-28T08:12:17.110Z,15.30
2019-02-28T08:13:17.025Z,15.70
2019-02-28T08:14:16.931Z,16.20
2019-02-28T08:15:21.134Z,16.00
2019-02-28T08:16:16.748Z,16.00
2019-02-28T08:17:16.659Z,15.40
2019-02-28T08:18:18.910Z,17.20
2019-02-28T08:19:16.481Z,15.90
2019-02-28T08:20:16.437Z,16.20
2019-02-28T08:21:16.299Z,16.00
2019-02-28T08:22:16.211Z,15.50
2019-02-28T08:23:16.123Z,16.50
2019-02-28T08:24:16.029Z,16.00
2019-02-28T08:25:16.065Z,16.90
2019-02-28T08:26:18.767Z,15.50
2019-02-28T08:27:15.777Z,15.20
2019-02-28T08:28:15.670Z,18.10
2019-02-28T08:29:15.585Z,15.90
2019-02-28T08:30:16.262Z,15.30
2019-02-28T08:31:15.399Z,15.80
2019-02-28T08:32:15.414Z,16.20
2019-02-28T08:33:16.344Z,15.80
2019-02-28T08:34:15.130Z,15.40
2019-02-28T08:35:15.090Z,16.50
2019-02-28T08:36:14.949Z,16.90
2019-02-28T08:37:14.868Z,15.60
2019-02-28T08:38:14.770Z,16.00
2019-02-28T08:39:16.231Z,14.90
2019-02-28T08:40:15.592Z,16.40
2019-02-28T08:41:14.504Z,17.80
2019-02-28T08:42:14.420Z,16.30
2019-02-28T08:43:14.325Z,16.70
2019-02-28T08:44:14.235Z,16.60
2019-02-28T08:45:14.159Z,16.10
2019-02-28T08:46:14.175Z,15.60
2019-02-28T08:47:13.965Z,16.00
2019-02-28T08:48:13.894Z,16.50
2019-02-28T08:49:13.785Z,16.20
2019-02-28T08:50:19.163Z,17.60
2019-02-28T08:51:13.609Z,16.40
2019-02-28T08:52:13.641Z,16.60
2019-02-28T08:53:15.556Z,17.20
2019-02-28T08:54:13.338Z,16.00
2019-02-28T08:55:13.267Z,16.00
2019-02-28T08:56:14.112Z,16.40
2019-02-28T08:57:13.082Z,16.60
2019-02-28T08:58:12.984Z,16.20
2019-02-28T08:59:18.153Z,17.00
2019-02-28T09:00:12.822Z,17.30
2019-02-28T09:01:12.717Z,18.50
2019-02-28T09:02:14.567Z,16.60
2019-02-28T09:03:12.538Z,16.80
2019-02-28T09:04:12.447Z,17.00
2019-02-28T09:05:12.377Z,19.30
2019-02-28T09:06:12.270Z,17.50
2019-02-28T09:07:14.895Z,17.40
2019-02-28T09:08:12.101Z,17.80
2019-02-28T09:09:12.002Z,17.60
2019-02-28T09:10:12.727Z,17.10
2019-02-28T09:11:11.831Z,17.20
2019-02-28T09:12:11.740Z,17.60
2019-02-28T09:13:11.647Z,16.90
2019-02-28T09:14:11.561Z,18.30
2019-02-28T09:15:11.488Z,18.00
2019-02-28T09:16:11.383Z,17.90
2019-02-28T09:17:11.292Z,18.40
2019-02-28T09:18:11.206Z,18.10
2019-02-28T09:19:11.120Z,17.80
2019-02-28T09:20:11.230Z,21.10
2019-02-28T09:21:10.939Z,18.50
2019-02-28T09:22:10.850Z,19.10
2019-02-28T09:23:10.763Z,19.60
2019-02-28T09:24:12.730Z,18.70
2019-02-28T09:25:10.591Z,17.90
2019-02-28T09:26:10.511Z,20.20
2019-02-28T09:27:12.198Z,19.60
2019-02-28T09:28:12.999Z,20.10
2019-02-28T09:29:10.234Z,18.90
2019-02-28T09:30:10.143Z,19.20
2019-02-28T09:31:10.073Z,19.50
2019-02-28T09:32:10.235Z,19.90
2019-02-28T09:33:09.880Z,19.80
2019-02-28T09:34:09.788Z,19.90
2019-02-28T09:35:13.825Z,19.90
2019-02-28T09:36:09.628Z,19.40
2019-02-28T09:37:09.526Z,19.10
2019-02-28T09:38:13.376Z,19.30
2019-02-28T09:39:09.348Z,20.40
2019-02-28T09:40:09.261Z,19.60
2019-02-28T09:41:09.189Z,19.60
2019-02-28T09:42:09.091Z,20.00
2019-02-28T09:43:08.998Z,20.00
2019-02-28T09:44:08.912Z,20.60
2019-02-28T09:45:08.824Z,21.00
2019-02-28T09:46:09.152Z,20.50
2019-02-28T09:47:11.573Z,19.10
2019-02-28T09:48:08.560Z,20.10
2019-02-28T09:49:12.074Z,21.20
2019-02-28T09:50:08.385Z,21.50
2019-02-28T09:51:08.316Z,20.10
2019-02-28T09:52:08.223Z,21.50
2019-02-28T09:53:08.123Z,20.40
2019-02-28T09:54:08.039Z,21.80
2019-02-28T09:55:08.058Z,21.80
2019-02-28T09:56:09.311Z,22.50
2019-02-28T09:57:07.776Z,21.30
2019-02-28T09:58:07.693Z,21.10
2019-02-28T09:59:07.603Z,20.70
2019-02-28T10:00:11.691Z,20.20
2019-02-28T10:01:07.447Z,20.90
2019-02-28T10:02:08.380Z,23.50
2019-02-28T10:03:07.256Z,21.80
2019-02-28T10:04:07.196Z,21.50
2019-02-28T10:05:07.546Z,22.10
2019-02-28T10:06:07.018Z,22.20
2019-02-28T10:07:06.912Z,21.60
2019-02-28T10:08:07.158Z,19.70
2019-02-28T10:09:08.736Z,21.30
2019-02-28T10:10:06.648Z,20.20
2019-02-28T10:11:06.579Z,20.40
2019-02-28T10:12:07.860Z,20.30
2019-02-28T10:13:06.387Z,20.80
2019-02-28T10:14:06.301Z,21.00
2019-02-28T10:15:07.503Z,21.60
2019-02-28T10:16:06.247Z,20.10
2019-02-28T10:17:06.043Z,19.80
2019-02-28T10:18:05.996Z,21.10
2019-02-28T10:19:05.870Z,21.90
2019-02-28T10:20:05.783Z,20.80
2019-02-28T10:21:05.716Z,20.90
2019-02-28T10:22:05.614Z,20.50
2019-02-28T10:23:05.627Z,21.20
2019-02-28T10:24:05.438Z,21.30
2019-02-28T10:25:06.478Z,21.00
2019-02-28T10:26:05.285Z,20.70
2019-02-28T10:27:05.176Z,21.10
2019-02-28T10:28:05.091Z,23.20
2019-02-28T10:29:07.550Z,22.20
2019-02-28T10:30:05.017Z,23.50
2019-02-28T10:31:04.849Z,23.40
2019-02-28T10:32:06.165Z,24.60
2019-02-28T10:33:04.661Z,23.70
2019-02-28T10:34:04.576Z,21.70
2019-02-28T10:35:04.508Z,24.30
2019-02-28T10:36:04.417Z,24.10
2019-02-28T10:37:04.427Z,26.30
2019-02-28T10:38:04.227Z,25.80
2019-02-28T10:39:05.882Z,25.30
2019-02-28T10:40:05.123Z,25.90
2019-02-28T10:41:03.983Z,25.20
2019-02-28T10:42:05.051Z,25.70
2019-02-28T10:43:03.792Z,25.70
2019-02-28T10:44:03.807Z,26.70
2019-02-28T10:45:06.427Z,25.90
2019-02-28T10:46:03.549Z,26.20
2019-02-28T10:47:03.444Z,25.80
2019-02-28T10:48:04.105Z,27.20
2019-02-28T10:49:03.275Z,26.00
2019-02-28T10:50:03.310Z,27.50
2019-02-28T10:51:11.877Z,27.00
2019-02-28T10:52:03.009Z,27.20
2019-02-28T10:53:05.502Z,27.10
2019-02-28T10:54:02.835Z,25.90
2019-02-28T10:55:02.762Z,27.00
2019-02-28T10:56:02.678Z,26.20
2019-02-28T10:57:03.133Z,28.30
2019-02-28T10:58:02.611Z,26.60
2019-02-28T10:59:02.406Z,26.70
2019-02-28T11:00:02.312Z,28.40
2019-02-28T11:01:07.696Z,25.70
2019-02-28T11:02:02.141Z,25.30
2019-02-28T11:03:02.056Z,26.10
2019-02-28T11:04:04.519Z,25.60
2019-02-28T11:05:01.990Z,25.30
2019-02-28T11:06:01.807Z,24.40
2019-02-28T11:07:02.263Z,25.40
2019-02-28T11:08:01.622Z,25.20
2019-02-28T11:09:01.539Z,24.10
2019-02-28T11:10:02.204Z,24.00
2019-02-28T11:11:01.358Z,24.20
2019-02-28T11:12:01.284Z,23.40
2019-02-28T11:13:01.183Z,24.20
2019-02-28T11:14:03.984Z,24.80
2019-02-28T11:15:01.011Z,24.00
2019-02-28T11:16:00.924Z,24.10
2019-02-28T11:17:00.854Z,23.90
2019-02-28T11:18:00.749Z,24.40
2019-02-28T11:19:00.765Z,24.90
2019-02-28T11:20:00.577Z,24.70
2019-02-28T11:21:00.488Z,25.00
2019-02-28T11:22:01.450Z,25.20
2019-02-28T11:23:00.313Z,24.60
2019-02-28T11:24:00.229Z,24.80
2019-02-28T11:25:00.952Z,25.10
2019-02-28T11:26:00.058Z,24.70
2019-02-28T11:26:59.983Z,24.10
2019-02-28T11:27:59.884Z,24.90
2019-02-28T11:29:02.830Z,24.10
2019-02-28T11:29:59.711Z,24.80
2019-02-28T11:30:59.624Z,25.80
2019-02-28T11:31:59.550Z,24.50
2019-02-28T11:33:03.259Z,25.80
2019-02-28T11:33:59.363Z,25.00
2019-02-28T11:34:59.277Z,25.00
2019-02-28T11:35:59.433Z,23.40
2019-02-28T11:36:59.123Z,24.70
2019-02-28T11:37:59.020Z,24.80
2019-02-28T11:38:58.932Z,25.30
2019-02-28T11:39:58.845Z,25.40
2019-02-28T11:40:58.761Z,24.80
2019-02-28T11:41:59.303Z,25.70
2019-02-28T11:42:59.486Z,25.60
2019-02-28T11:43:58.501Z,25.20
2019-02-28T11:44:58.417Z,25.40
2019-02-28T11:46:01.051Z,25.70
2019-02-28T11:46:58.266Z,25.90
2019-02-28T11:47:58.156Z,25.60
2019-02-28T11:48:58.073Z,26.40
2019-02-28T11:50:00.414Z,29.00
2019-02-28T11:50:57.913Z,26.60
2019-02-28T11:51:57.828Z,27.80
2019-02-28T11:53:03.212Z,27.20
2019-02-28T11:53:57.640Z,27.50
2019-02-28T11:54:57.559Z,26.10
2019-02-28T11:55:57.558Z,27.30
2019-02-28T11:57:02.635Z,26.80
2019-02-28T11:57:57.296Z,26.40
2019-02-28T11:58:57.217Z,27.30
2019-02-28T12:00:00.040Z,26.60
2019-02-28T12:00:57.040Z,26.70
2019-02-28T12:01:56.971Z,27.60
2019-02-28T12:03:00.111Z,28.00
2019-02-28T12:03:56.783Z,28.00
2019-02-28T12:04:56.699Z,28.30
2019-02-28T12:05:56.613Z,27.60
2019-02-28T12:06:57.482Z,28.20
2019-02-28T12:07:56.437Z,28.30
2019-02-28T12:08:56.657Z,28.10
2019-02-28T12:09:56.273Z,28.00
2019-02-28T12:10:58.399Z,28.30
2019-02-28T12:11:56.110Z,27.90
2019-02-28T12:12:56.443Z,26.30
2019-02-28T12:13:56.104Z,28.30
2019-02-28T12:14:55.838Z,28.90
2019-02-28T12:15:55.750Z,29.70
2019-02-28T12:16:55.681Z,29.20
2019-02-28T12:17:55.598Z,29.30
2019-02-28T12:18:55.499Z,28.70
2019-02-28T12:19:55.408Z,28.60
2019-02-28T12:20:55.324Z,28.80
2019-02-28T12:21:55.251Z,30.00
2019-02-28T12:22:55.148Z,29.20
2019-02-28T12:23:57.371Z,30.40
2019-02-28T12:24:55.301Z,30.50
2019-02-28T12:25:54.891Z,30.00
2019-02-28T12:26:54.825Z,30.30
2019-02-28T12:27:55.298Z,29.40
2019-02-28T12:28:54.630Z,30.00
2019-02-28T12:29:54.544Z,30.10
2019-02-28T12:30:57.283Z,29.90
2019-02-28T12:31:54.392Z,30.10
2019-02-28T12:32:54.284Z,30.80
2019-02-28T12:33:56.792Z,30.70
2019-02-28T12:34:54.113Z,30.70
2019-02-28T12:35:54.844Z,30.80
2019-02-28T12:36:53.953Z,30.20
2019-02-28T12:37:54.129Z,30.10
2019-02-28T12:38:53.764Z,30.70
2019-02-28T12:39:53.677Z,30.80
2019-02-28T12:40:53.591Z,31.70
2019-02-28T12:41:56.523Z,31.30
2019-02-28T12:42:53.419Z,32.40
2019-02-28T12:43:53.629Z,30.50
2019-02-28T12:44:53.242Z,30.70
2019-02-28T12:45:53.641Z,30.20
2019-02-28T12:46:53.085Z,30.90
2019-02-28T12:47:52.984Z,31.80
2019-02-28T12:48:52.895Z,30.90
2019-02-28T12:49:54.306Z,30.70
2019-02-28T12:50:52.721Z,32.40
2019-02-28T12:51:52.634Z,30.60